sensor_id;sensor_type;location;lat;lon;timestamp;temperature;humidity
23089;DHT22;11713;48.506;8.966;2023-03-01T00:01:07;-0.50;99.90
23089;DHT22;11713;48.506;8.966;2023-03-01T00:03:34;-0.50;99.90
23089;DHT22;11713;48.506;8.966;2023-03-01T00:06:00;-0.50;99.90
23089;DHT22;11713;48.506;8.966;2023-03-01T00:08:27;-0.50;99.90
23089;DHT22;11713;48.506;8.966;2023-03-01T00:13:31;-0.40;99.90
23089;DHT22;11713;48.506;8.966;2023-03-01T00:15:57;-0.40;99.90
23089;DHT22;11713;48.506;8.966;2023-03-01T00:18:23;-0.40;99.90
23089;DHT22;11713;48.506;8.966;2023-03-01T00:20:53;-0.40;99.90
23089;DHT22;11713;48.506;8.966;2023-03-01T00:23:19;-0.50;99.90
23089;DHT22;11713;48.506;8.966;2023-03-01T00:25:45;-0.50;99.90
23089;DHT22;11713;48.506;8.966;2023-03-01T00:28:11;-0.60;99.90
23089;DHT22;11713;48.506;8.966;2023-03-01T00:30:37;-0.60;99.90
23089;DHT22;11713;48.506;8.966;2023-03-01T00:33:03;-0.70;99.90
23089;DHT22;11713;48.506;8.966;2023-03-01T00:35:28;-0.80;99.90
23089;DHT22;11713;48.506;8.966;2023-03-01T00:37:56;-0.80;99.90
23089;DHT22;11713;48.506;8.966;2023-03-01T00:40:27;-0.90;99.90
23089;DHT22;11713;48.506;8.966;2023-03-01T00:42:54;-1.00;99.90
23089;DHT22;11713;48.506;8.966;2023-03-01T00:45:21;-1.00;99.90
23089;DHT22;11713;48.506;8.966;2023-03-01T00:47:48;-1.00;99.90
23089;DHT22;11713;48.506;8.966;2023-03-01T00:50:14;-1.00;99.90
23089;DHT22;11713;48.506;8.966;2023-03-01T00:52:40;-1.00;99.90
23089;DHT22;11713;48.506;8.966;2023-03-01T00:55:07;-1.10;99.90
23089;DHT22;11713;48.506;8.966;2023-03-01T00:57:33;-1.10;99.90
23089;DHT22;11713;48.506;8.966;2023-03-01T00:59:59;-1.20;99.90
23089;DHT22;11713;48.506;8.966;2023-03-01T01:02:25;-1.10;99.90
23089;DHT22;11713;48.506;8.966;2023-03-01T01:04:53;-1.10;99.90
23089;DHT22;11713;48.506;8.966;2023-03-01T01:07:18;-1.20;99.90
23089;DHT22;11713;48.506;8.966;2023-03-01T01:09:46;-1.20;99.90
23089;DHT22;11713;48.506;8.966;2023-03-01T01:12:12;-1.20;99.90
23089;DHT22;11713;48.506;8.966;2023-03-01T01:14:38;-1.20;99.90
23089;DHT22;11713;48.506;8.966;2023-03-01T01:17:04;-1.30;99.90
23089;DHT22;11713;48.506;8.966;2023-03-01T01:19:30;-1.30;99.90
23089;DHT22;11713;48.506;8.966;2023-03-01T01:21:56;-1.30;99.90
23089;DHT22;11713;48.506;8.966;2023-03-01T01:24:22;-1.20;99.90
23089;DHT22;11713;48.506;8.966;2023-03-01T01:26:49;-1.30;99.90
23089;DHT22;11713;48.506;8.966;2023-03-01T01:29:14;-1.30;99.90
23089;DHT22;11713;48.506;8.966;2023-03-01T01:31:41;-1.40;99.90
23089;DHT22;11713;48.506;8.966;2023-03-01T01:34:12;-1.40;99.90
23089;DHT22;11713;48.506;8.966;2023-03-01T01:36:38;-1.50;99.90
23089;DHT22;11713;48.506;8.966;2023-03-01T01:39:04;-1.50;99.90
23089;DHT22;11713;48.506;8.966;2023-03-01T01:41:30;-1.50;99.90
23089;DHT22;11713;48.506;8.966;2023-03-01T01:44:21;-1.50;99.90
23089;DHT22;11713;48.506;8.966;2023-03-01T01:46:52;-1.50;99.90
23089;DHT22;11713;48.506;8.966;2023-03-01T01:52:39;-1.50;99.90
23089;DHT22;11713;48.506;8.966;2023-03-01T01:57:49;-1.50;99.90
23089;DHT22;11713;48.506;8.966;2023-03-01T02:00:26;-1.50;99.90
23089;DHT22;11713;48.506;8.966;2023-03-01T02:02:56;-1.60;99.90
23089;DHT22;11713;48.506;8.966;2023-03-01T02:05:46;-1.60;99.90
23089;DHT22;11713;48.506;8.966;2023-03-01T02:08:14;-1.60;99.90
23089;DHT22;11713;48.506;8.966;2023-03-01T02:10:42;-1.60;99.90
23089;DHT22;11713;48.506;8.966;2023-03-01T02:13:09;-1.60;99.90
23089;DHT22;11713;48.506;8.966;2023-03-01T02:15:38;-1.60;99.90
23089;DHT22;11713;48.506;8.966;2023-03-01T02:18:05;-1.60;99.90
23089;DHT22;11713;48.506;8.966;2023-03-01T02:23:22;-1.60;99.90
23089;DHT22;11713;48.506;8.966;2023-03-01T02:28:52;-1.60;99.90
23089;DHT22;11713;48.506;8.966;2023-03-01T02:31:19;-1.60;99.90
23089;DHT22;11713;48.506;8.966;2023-03-01T02:34:40;-1.50;99.90
23089;DHT22;11713;48.506;8.966;2023-03-01T02:37:08;-1.50;99.90
23089;DHT22;11713;48.506;8.966;2023-03-01T02:39:41;-1.40;99.90
23089;DHT22;11713;48.506;8.966;2023-03-01T02:42:12;-1.40;99.90
23089;DHT22;11713;48.506;8.966;2023-03-01T02:44:39;-1.40;99.90
23089;DHT22;11713;48.506;8.966;2023-03-01T02:47:05;-1.40;99.90
23089;DHT22;11713;48.506;8.966;2023-03-01T02:49:34;-1.30;99.90
23089;DHT22;11713;48.506;8.966;2023-03-01T02:55:05;-1.30;99.90
23089;DHT22;11713;48.506;8.966;2023-03-01T02:57:34;-1.20;99.90
23089;DHT22;11713;48.506;8.966;2023-03-01T03:00:11;-1.20;99.90
23089;DHT22;11713;48.506;8.966;2023-03-01T03:02:45;-1.20;99.90
23089;DHT22;11713;48.506;8.966;2023-03-01T03:05:19;-1.10;99.90
23089;DHT22;11713;48.506;8.966;2023-03-01T03:07:47;-1.10;99.90
23089;DHT22;11713;48.506;8.966;2023-03-01T03:10:20;-1.10;99.90
23089;DHT22;11713;48.506;8.966;2023-03-01T03:12:51;-1.10;99.90
23089;DHT22;11713;48.506;8.966;2023-03-01T03:15:17;-1.00;99.90
23089;DHT22;11713;48.506;8.966;2023-03-01T03:17:43;-1.00;99.90
23089;DHT22;11713;48.506;8.966;2023-03-01T03:20:11;-1.00;99.90
23089;DHT22;11713;48.506;8.966;2023-03-01T03:22:41;-0.90;99.90
23089;DHT22;11713;48.506;8.966;2023-03-01T03:25:07;-0.90;99.90
23089;DHT22;11713;48.506;8.966;2023-03-01T03:27:37;-0.90;99.90
23089;DHT22;11713;48.506;8.966;2023-03-01T03:30:05;-0.90;99.90
23089;DHT22;11713;48.506;8.966;2023-03-01T03:32:38;-0.90;99.90
23089;DHT22;11713;48.506;8.966;2023-03-01T03:35:05;-0.90;99.90
23089;DHT22;11713;48.506;8.966;2023-03-01T03:37:39;-0.80;99.90
23089;DHT22;11713;48.506;8.966;2023-03-01T03:40:24;-0.80;99.90
23089;DHT22;11713;48.506;8.966;2023-03-01T03:42:50;-0.80;99.90
23089;DHT22;11713;48.506;8.966;2023-03-01T03:45:17;-0.80;99.90
23089;DHT22;11713;48.506;8.966;2023-03-01T03:47:44;-0.80;99.90
23089;DHT22;11713;48.506;8.966;2023-03-01T03:50:11;-0.70;99.90
23089;DHT22;11713;48.506;8.966;2023-03-01T03:52:37;-0.70;99.90
23089;DHT22;11713;48.506;8.966;2023-03-01T03:55:04;-0.70;99.90
23089;DHT22;11713;48.506;8.966;2023-03-01T03:57:35;-0.70;99.90
23089;DHT22;11713;48.506;8.966;2023-03-01T04:00:01;-0.60;99.90
23089;DHT22;11713;48.506;8.966;2023-03-01T04:02:38;-0.60;99.90
23089;DHT22;11713;48.506;8.966;2023-03-01T04:05:05;-0.60;99.90
23089;DHT22;11713;48.506;8.966;2023-03-01T04:07:30;-0.60;99.90
23089;DHT22;11713;48.506;8.966;2023-03-01T04:09:56;-0.50;99.90
23089;DHT22;11713;48.506;8.966;2023-03-01T04:12:22;-0.50;99.90
23089;DHT22;11713;48.506;8.966;2023-03-01T04:14:48;-0.50;99.90
23089;DHT22;11713;48.506;8.966;2023-03-01T04:17:14;-0.40;99.90
23089;DHT22;11713;48.506;8.966;2023-03-01T04:19:40;-0.40;99.90
23089;DHT22;11713;48.506;8.966;2023-03-01T04:22:05;-0.30;99.90
23089;DHT22;11713;48.506;8.966;2023-03-01T04:24:37;-0.30;99.90
23089;DHT22;11713;48.506;8.966;2023-03-01T04:27:03;-0.30;99.90
23089;DHT22;11713;48.506;8.966;2023-03-01T04:29:29;-0.20;99.90
23089;DHT22;11713;48.506;8.966;2023-03-01T04:31:55;-0.20;99.90
23089;DHT22;11713;48.506;8.966;2023-03-01T04:34:21;-0.20;99.90
23089;DHT22;11713;48.506;8.966;2023-03-01T04:36:46;-0.20;99.90
23089;DHT22;11713;48.506;8.966;2023-03-01T04:39:12;-0.20;99.90
23089;DHT22;11713;48.506;8.966;2023-03-01T04:41:58;-0.20;99.90
23089;DHT22;11713;48.506;8.966;2023-03-01T04:44:57;-0.10;99.90
23089;DHT22;11713;48.506;8.966;2023-03-01T04:47:41;-0.10;99.90
23089;DHT22;11713;48.506;8.966;2023-03-01T04:50:11;-0.10;99.90
23089;DHT22;11713;48.506;8.966;2023-03-01T04:52:39;-0.10;99.90
23089;DHT22;11713;48.506;8.966;2023-03-01T04:55:15;-0.10;99.90
23089;DHT22;11713;48.506;8.966;2023-03-01T04:57:43;0.00;99.90
23089;DHT22;11713;48.506;8.966;2023-03-01T05:00:12;0.00;99.90
23089;DHT22;11713;48.506;8.966;2023-03-01T05:02:54;0.00;99.90
23089;DHT22;11713;48.506;8.966;2023-03-01T05:05:29;0.00;99.90
23089;DHT22;11713;48.506;8.966;2023-03-01T05:07:58;0.00;99.90
23089;DHT22;11713;48.506;8.966;2023-03-01T05:10:25;-0.10;99.90
23089;DHT22;11713;48.506;8.966;2023-03-01T05:12:52;-0.10;99.90
23089;DHT22;11713;48.506;8.966;2023-03-01T05:15:18;-0.10;99.90
23089;DHT22;11713;48.506;8.966;2023-03-01T05:17:48;-0.20;99.90
23089;DHT22;11713;48.506;8.966;2023-03-01T05:20:14;-0.20;99.90
23089;DHT22;11713;48.506;8.966;2023-03-01T05:22:40;-0.20;99.90
23089;DHT22;11713;48.506;8.966;2023-03-01T05:25:06;-0.20;99.90
23089;DHT22;11713;48.506;8.966;2023-03-01T05:27:33;-0.10;99.90
23089;DHT22;11713;48.506;8.966;2023-03-01T05:29:59;-0.10;99.90
23089;DHT22;11713;48.506;8.966;2023-03-01T05:32:44;-0.10;99.90
23089;DHT22;11713;48.506;8.966;2023-03-01T05:35:14;-0.10;99.90
23089;DHT22;11713;48.506;8.966;2023-03-01T05:37:42;-0.10;99.90
23089;DHT22;11713;48.506;8.966;2023-03-01T05:40:10;0.00;99.90
23089;DHT22;11713;48.506;8.966;2023-03-01T05:42:53;0.00;99.90
23089;DHT22;11713;48.506;8.966;2023-03-01T05:45:21;0.00;99.90
23089;DHT22;11713;48.506;8.966;2023-03-01T05:47:48;0.00;99.90
23089;DHT22;11713;48.506;8.966;2023-03-01T05:50:18;0.00;99.90
23089;DHT22;11713;48.506;8.966;2023-03-01T05:52:49;0.00;99.90
23089;DHT22;11713;48.506;8.966;2023-03-01T05:55:17;0.10;99.90
23089;DHT22;11713;48.506;8.966;2023-03-01T05:57:45;0.10;99.90
23089;DHT22;11713;48.506;8.966;2023-03-01T06:00:13;0.10;99.90
23089;DHT22;11713;48.506;8.966;2023-03-01T06:02:41;0.10;99.90
23089;DHT22;11713;48.506;8.966;2023-03-01T06:05:09;0.10;99.90
23089;DHT22;11713;48.506;8.966;2023-03-01T06:07:36;0.10;99.90
23089;DHT22;11713;48.506;8.966;2023-03-01T06:10:03;0.10;99.90
23089;DHT22;11713;48.506;8.966;2023-03-01T06:12:31;0.10;99.90
23089;DHT22;11713;48.506;8.966;2023-03-01T06:14:58;0.10;99.90
23089;DHT22;11713;48.506;8.966;2023-03-01T06:17:24;0.20;99.90
23089;DHT22;11713;48.506;8.966;2023-03-01T06:19:50;0.20;99.90
23089;DHT22;11713;48.506;8.966;2023-03-01T06:22:16;0.10;99.90
23089;DHT22;11713;48.506;8.966;2023-03-01T06:24:42;0.20;99.90
23089;DHT22;11713;48.506;8.966;2023-03-01T06:27:08;0.20;99.90
23089;DHT22;11713;48.506;8.966;2023-03-01T06:29:34;0.20;99.90
23089;DHT22;11713;48.506;8.966;2023-03-01T06:32:00;0.20;99.90
23089;DHT22;11713;48.506;8.966;2023-03-01T06:34:26;0.20;99.90
23089;DHT22;11713;48.506;8.966;2023-03-01T06:36:52;0.20;99.90
23089;DHT22;11713;48.506;8.966;2023-03-01T06:39:18;0.20;99.90
23089;DHT22;11713;48.506;8.966;2023-03-01T06:41:44;0.30;99.90
23089;DHT22;11713;48.506;8.966;2023-03-01T06:44:10;0.30;99.90
23089;DHT22;11713;48.506;8.966;2023-03-01T06:46:36;0.30;99.90
23089;DHT22;11713;48.506;8.966;2023-03-01T06:49:02;0.40;99.90
23089;DHT22;11713;48.506;8.966;2023-03-01T06:51:33;0.40;99.90
23089;DHT22;11713;48.506;8.966;2023-03-01T06:53:59;0.50;99.90
23089;DHT22;11713;48.506;8.966;2023-03-01T06:56:24;0.50;99.90
23089;DHT22;11713;48.506;8.966;2023-03-01T06:58:51;0.50;99.90
23089;DHT22;11713;48.506;8.966;2023-03-01T07:01:17;0.50;99.90
23089;DHT22;11713;48.506;8.966;2023-03-01T07:03:43;0.50;99.90
23089;DHT22;11713;48.506;8.966;2023-03-01T07:06:10;0.60;99.90
23089;DHT22;11713;48.506;8.966;2023-03-01T07:08:36;0.60;99.90
23089;DHT22;11713;48.506;8.966;2023-03-01T07:11:02;0.60;99.90
23089;DHT22;11713;48.506;8.966;2023-03-01T07:13:29;0.60;99.90
23089;DHT22;11713;48.506;8.966;2023-03-01T07:15:55;0.60;99.90
23089;DHT22;11713;48.506;8.966;2023-03-01T07:18:22;0.60;99.90
23089;DHT22;11713;48.506;8.966;2023-03-01T07:20:48;0.70;99.90
23089;DHT22;11713;48.506;8.966;2023-03-01T07:23:14;0.70;99.90
23089;DHT22;11713;48.506;8.966;2023-03-01T07:25:41;0.80;99.90
23089;DHT22;11713;48.506;8.966;2023-03-01T07:28:07;0.80;99.90
23089;DHT22;11713;48.506;8.966;2023-03-01T07:30:33;0.90;99.90
23089;DHT22;11713;48.506;8.966;2023-03-01T07:32:59;1.00;99.90
23089;DHT22;11713;48.506;8.966;2023-03-01T07:35:26;1.00;99.90
23089;DHT22;11713;48.506;8.966;2023-03-01T07:37:53;1.10;99.90
23089;DHT22;11713;48.506;8.966;2023-03-01T07:40:19;1.20;99.90
23089;DHT22;11713;48.506;8.966;2023-03-01T07:42:45;1.20;99.90
23089;DHT22;11713;48.506;8.966;2023-03-01T07:45:11;1.30;99.90
23089;DHT22;11713;48.506;8.966;2023-03-01T07:47:39;1.30;99.90
23089;DHT22;11713;48.506;8.966;2023-03-01T07:50:05;1.40;99.90
23089;DHT22;11713;48.506;8.966;2023-03-01T07:52:31;1.40;99.90
23089;DHT22;11713;48.506;8.966;2023-03-01T07:54:57;1.50;99.90
23089;DHT22;11713;48.506;8.966;2023-03-01T07:57:23;1.60;99.90
23089;DHT22;11713;48.506;8.966;2023-03-01T07:59:49;1.60;99.90
23089;DHT22;11713;48.506;8.966;2023-03-01T08:02:15;1.80;99.90
23089;DHT22;11713;48.506;8.966;2023-03-01T08:04:41;1.80;99.90
23089;DHT22;11713;48.506;8.966;2023-03-01T08:07:08;2.00;99.90
23089;DHT22;11713;48.506;8.966;2023-03-01T08:09:37;2.10;99.90
23089;DHT22;11713;48.506;8.966;2023-03-01T08:12:04;2.20;99.90
23089;DHT22;11713;48.506;8.966;2023-03-01T08:14:32;2.20;99.90
23089;DHT22;11713;48.506;8.966;2023-03-01T08:16:58;2.20;99.90
23089;DHT22;11713;48.506;8.966;2023-03-01T08:19:24;2.30;99.90
23089;DHT22;11713;48.506;8.966;2023-03-01T08:21:50;2.40;99.90
23089;DHT22;11713;48.506;8.966;2023-03-01T08:24:16;2.50;99.90
23089;DHT22;11713;48.506;8.966;2023-03-01T08:26:43;2.60;99.90
23089;DHT22;11713;48.506;8.966;2023-03-01T08:29:10;2.70;99.90
23089;DHT22;11713;48.506;8.966;2023-03-01T08:31:38;2.80;99.90
23089;DHT22;11713;48.506;8.966;2023-03-01T08:34:09;2.90;99.90
23089;DHT22;11713;48.506;8.966;2023-03-01T08:36:38;3.00;99.90
23089;DHT22;11713;48.506;8.966;2023-03-01T08:39:06;3.00;99.90
23089;DHT22;11713;48.506;8.966;2023-03-01T08:41:32;3.10;99.90
23089;DHT22;11713;48.506;8.966;2023-03-01T08:43:58;3.00;99.90
23089;DHT22;11713;48.506;8.966;2023-03-01T08:46:36;3.10;99.90
23089;DHT22;11713;48.506;8.966;2023-03-01T08:49:20;3.10;99.90
23089;DHT22;11713;48.506;8.966;2023-03-01T08:51:47;3.20;99.90
23089;DHT22;11713;48.506;8.966;2023-03-01T08:54:18;3.20;99.90
23089;DHT22;11713;48.506;8.966;2023-03-01T08:56:46;3.30;99.90
23089;DHT22;11713;48.506;8.966;2023-03-01T08:59:12;3.30;99.90
23089;DHT22;11713;48.506;8.966;2023-03-01T09:01:39;3.50;99.90
23089;DHT22;11713;48.506;8.966;2023-03-01T09:04:06;3.60;99.90
23089;DHT22;11713;48.506;8.966;2023-03-01T09:06:33;3.70;99.90
23089;DHT22;11713;48.506;8.966;2023-03-01T09:09:00;3.80;99.90
23089;DHT22;11713;48.506;8.966;2023-03-01T09:11:26;4.00;99.90
23089;DHT22;11713;48.506;8.966;2023-03-01T09:13:53;4.00;99.90
23089;DHT22;11713;48.506;8.966;2023-03-01T09:16:20;4.10;99.90
23089;DHT22;11713;48.506;8.966;2023-03-01T09:18:53;4.20;99.90
23089;DHT22;11713;48.506;8.966;2023-03-01T09:21:21;4.30;99.90
23089;DHT22;11713;48.506;8.966;2023-03-01T09:23:48;4.30;99.90
23089;DHT22;11713;48.506;8.966;2023-03-01T09:26:19;4.30;99.90
23089;DHT22;11713;48.506;8.966;2023-03-01T09:28:46;4.50;99.90
23089;DHT22;11713;48.506;8.966;2023-03-01T09:31:13;4.70;99.90
23089;DHT22;11713;48.506;8.966;2023-03-01T09:33:40;4.80;99.90
23089;DHT22;11713;48.506;8.966;2023-03-01T09:36:09;4.70;99.90
23089;DHT22;11713;48.506;8.966;2023-03-01T09:38:36;4.90;99.90
23089;DHT22;11713;48.506;8.966;2023-03-01T09:41:02;5.20;99.90
23089;DHT22;11713;48.506;8.966;2023-03-01T09:43:40;5.30;99.90
23089;DHT22;11713;48.506;8.966;2023-03-01T09:46:11;5.50;99.90
23089;DHT22;11713;48.506;8.966;2023-03-01T09:48:49;5.60;99.90
23089;DHT22;11713;48.506;8.966;2023-03-01T09:51:31;5.70;99.90
23089;DHT22;11713;48.506;8.966;2023-03-01T09:53:58;5.90;99.90
23089;DHT22;11713;48.506;8.966;2023-03-01T09:56:41;5.90;99.90
23089;DHT22;11713;48.506;8.966;2023-03-01T09:59:24;5.80;99.90
23089;DHT22;11713;48.506;8.966;2023-03-01T10:04:47;6.10;99.90
23089;DHT22;11713;48.506;8.966;2023-03-01T10:07:32;6.20;99.90
23089;DHT22;11713;48.506;8.966;2023-03-01T10:10:05;6.20;99.90
23089;DHT22;11713;48.506;8.966;2023-03-01T10:12:40;6.30;99.90
23089;DHT22;11713;48.506;8.966;2023-03-01T10:15:18;6.20;99.90
23089;DHT22;11713;48.506;8.966;2023-03-01T10:18:09;6.20;99.90
23089;DHT22;11713;48.506;8.966;2023-03-01T10:20:57;6.30;99.90
23089;DHT22;11713;48.506;8.966;2023-03-01T10:23:25;6.40;99.90
23089;DHT22;11713;48.506;8.966;2023-03-01T10:31:51;6.20;99.90
23089;DHT22;11713;48.506;8.966;2023-03-01T10:34:21;6.30;99.90
23089;DHT22;11713;48.506;8.966;2023-03-01T10:36:50;6.00;99.90
23089;DHT22;11713;48.506;8.966;2023-03-01T10:39:20;6.10;99.90
23089;DHT22;11713;48.506;8.966;2023-03-01T10:41:54;6.10;99.90
23089;DHT22;11713;48.506;8.966;2023-03-01T10:44:41;6.10;99.90
23089;DHT22;11713;48.506;8.966;2023-03-01T10:47:20;6.40;99.90
23089;DHT22;11713;48.506;8.966;2023-03-01T10:50:02;6.60;99.90
23089;DHT22;11713;48.506;8.966;2023-03-01T10:55:36;6.90;99.90
23089;DHT22;11713;48.506;8.966;2023-03-01T11:00:56;7.10;99.90
23089;DHT22;11713;48.506;8.966;2023-03-01T11:03:31;6.90;99.90
23089;DHT22;11713;48.506;8.966;2023-03-01T11:06:01;6.80;99.90
23089;DHT22;11713;48.506;8.966;2023-03-01T11:08:46;6.70;99.90
23089;DHT22;11713;48.506;8.966;2023-03-01T11:16:26;6.80;99.90
23089;DHT22;11713;48.506;8.966;2023-03-01T11:24:12;7.20;99.90
23089;DHT22;11713;48.506;8.966;2023-03-01T11:26:45;7.30;99.90
23089;DHT22;11713;48.506;8.966;2023-03-01T11:29:53;7.40;99.90
23089;DHT22;11713;48.506;8.966;2023-03-01T11:32:24;7.30;99.90
23089;DHT22;11713;48.506;8.966;2023-03-01T11:34:55;7.50;99.90
23089;DHT22;11713;48.506;8.966;2023-03-01T11:37:32;7.60;99.90
23089;DHT22;11713;48.506;8.966;2023-03-01T11:51:38;8.20;99.90
23089;DHT22;11713;48.506;8.966;2023-03-01T11:54:43;8.30;99.90
23089;DHT22;11713;48.506;8.966;2023-03-01T12:00:06;8.40;99.90
23089;DHT22;11713;48.506;8.966;2023-03-01T12:08:20;8.60;99.90
23089;DHT22;11713;48.506;8.966;2023-03-01T12:11:20;8.70;99.90
23089;DHT22;11713;48.506;8.966;2023-03-01T12:22:16;8.80;99.90
23089;DHT22;11713;48.506;8.966;2023-03-01T12:33:26;9.40;99.90
23089;DHT22;11713;48.506;8.966;2023-03-01T12:38:49;9.70;99.90
23089;DHT22;11713;48.506;8.966;2023-03-01T12:41:55;9.80;99.90
23089;DHT22;11713;48.506;8.966;2023-03-01T12:47:42;9.80;99.90
23089;DHT22;11713;48.506;8.966;2023-03-01T12:50:16;9.80;99.90
23089;DHT22;11713;48.506;8.966;2023-03-01T12:52:52;10.00;99.90
23089;DHT22;11713;48.506;8.966;2023-03-01T12:55:29;10.00;99.90
23089;DHT22;11713;48.506;8.966;2023-03-01T12:58:05;9.70;99.90
23089;DHT22;11713;48.506;8.966;2023-03-01T13:00:40;9.80;99.90
23089;DHT22;11713;48.506;8.966;2023-03-01T13:03:14;9.90;99.90
23089;DHT22;11713;48.506;8.966;2023-03-01T13:11:20;10.40;99.90
23089;DHT22;11713;48.506;8.966;2023-03-01T13:13:46;10.50;99.90
23089;DHT22;11713;48.506;8.966;2023-03-01T13:19:22;10.70;99.90
23089;DHT22;11713;48.506;8.966;2023-03-01T13:21:50;10.60;99.90
23089;DHT22;11713;48.506;8.966;2023-03-01T13:24:27;10.70;99.90
23089;DHT22;11713;48.506;8.966;2023-03-01T13:29:53;10.50;99.90
23089;DHT22;11713;48.506;8.966;2023-03-01T13:32:21;10.70;99.90
23089;DHT22;11713;48.506;8.966;2023-03-01T13:34:49;10.70;99.90
23089;DHT22;11713;48.506;8.966;2023-03-01T13:37:21;10.70;99.90
23089;DHT22;11713;48.506;8.966;2023-03-01T13:39:47;10.90;99.90
23089;DHT22;11713;48.506;8.966;2023-03-01T13:42:34;11.10;99.90
23089;DHT22;11713;48.506;8.966;2023-03-01T13:45:49;11.10;99.90
23089;DHT22;11713;48.506;8.966;2023-03-01T13:48:15;10.50;99.90
23089;DHT22;11713;48.506;8.966;2023-03-01T13:51:06;10.70;99.90
23089;DHT22;11713;48.506;8.966;2023-03-01T13:53:40;10.10;99.90
23089;DHT22;11713;48.506;8.966;2023-03-01T14:01:42;10.10;99.90
23089;DHT22;11713;48.506;8.966;2023-03-01T14:04:37;9.90;99.90
23089;DHT22;11713;48.506;8.966;2023-03-01T14:07:18;9.90;99.90
23089;DHT22;11713;48.506;8.966;2023-03-01T14:09:46;9.60;99.90
23089;DHT22;11713;48.506;8.966;2023-03-01T14:17:47;10.20;99.90
23089;DHT22;11713;48.506;8.966;2023-03-01T14:20:27;10.20;99.90
23089;DHT22;11713;48.506;8.966;2023-03-01T14:22:55;10.40;99.90
23089;DHT22;11713;48.506;8.966;2023-03-01T14:25:34;10.60;99.90
23089;DHT22;11713;48.506;8.966;2023-03-01T14:28:11;10.60;99.90
23089;DHT22;11713;48.506;8.966;2023-03-01T14:31:00;10.50;99.90
23089;DHT22;11713;48.506;8.966;2023-03-01T14:33:35;10.70;99.90
23089;DHT22;11713;48.506;8.966;2023-03-01T14:36:12;10.70;99.90
23089;DHT22;11713;48.506;8.966;2023-03-01T14:38:46;10.80;99.90
23089;DHT22;11713;48.506;8.966;2023-03-01T14:41:24;10.70;99.90
23089;DHT22;11713;48.506;8.966;2023-03-01T14:44:03;10.40;99.90
23089;DHT22;11713;48.506;8.966;2023-03-01T14:46:34;10.50;99.90
23089;DHT22;11713;48.506;8.966;2023-03-01T14:49:17;10.40;99.90
23089;DHT22;11713;48.506;8.966;2023-03-01T14:51:54;10.60;99.90
23089;DHT22;11713;48.506;8.966;2023-03-01T14:54:28;10.80;99.90
23089;DHT22;11713;48.506;8.966;2023-03-01T14:56:59;10.60;99.90
23089;DHT22;11713;48.506;8.966;2023-03-01T14:59:26;10.70;99.90
23089;DHT22;11713;48.506;8.966;2023-03-01T15:01:56;10.90;99.90
23089;DHT22;11713;48.506;8.966;2023-03-01T15:04:23;10.60;99.90
23089;DHT22;11713;48.506;8.966;2023-03-01T15:06:54;10.80;99.90
23089;DHT22;11713;48.506;8.966;2023-03-01T15:09:21;10.80;99.90
23089;DHT22;11713;48.506;8.966;2023-03-01T15:11:48;10.80;99.90
23089;DHT22;11713;48.506;8.966;2023-03-01T15:14:42;10.90;99.90
23089;DHT22;11713;48.506;8.966;2023-03-01T15:17:24;10.90;99.90
23089;DHT22;11713;48.506;8.966;2023-03-01T15:19:52;10.80;99.90
23089;DHT22;11713;48.506;8.966;2023-03-01T15:22:18;10.50;99.90
23089;DHT22;11713;48.506;8.966;2023-03-01T15:24:50;10.40;99.90
23089;DHT22;11713;48.506;8.966;2023-03-01T15:27:19;10.50;99.90
23089;DHT22;11713;48.506;8.966;2023-03-01T15:29:52;10.50;99.90
23089;DHT22;11713;48.506;8.966;2023-03-01T15:34:53;10.60;99.90
23089;DHT22;11713;48.506;8.966;2023-03-01T15:40:29;10.40;99.90
23089;DHT22;11713;48.506;8.966;2023-03-01T15:42:59;10.20;99.90
23089;DHT22;11713;48.506;8.966;2023-03-01T15:45:28;9.80;99.90
23089;DHT22;11713;48.506;8.966;2023-03-01T15:47:57;9.70;99.90
23089;DHT22;11713;48.506;8.966;2023-03-01T15:50:32;9.80;99.90
23089;DHT22;11713;48.506;8.966;2023-03-01T15:53:03;9.60;99.90
23089;DHT22;11713;48.506;8.966;2023-03-01T15:55:32;9.60;99.90
23089;DHT22;11713;48.506;8.966;2023-03-01T15:58:02;9.60;99.90
23089;DHT22;11713;48.506;8.966;2023-03-01T16:00:29;9.80;99.90
23089;DHT22;11713;48.506;8.966;2023-03-01T16:02:56;9.90;99.90
23089;DHT22;11713;48.506;8.966;2023-03-01T16:05:27;9.80;99.90
23089;DHT22;11713;48.506;8.966;2023-03-01T16:07:54;9.70;99.90
23089;DHT22;11713;48.506;8.966;2023-03-01T16:10:20;9.60;99.90
23089;DHT22;11713;48.506;8.966;2023-03-01T16:12:47;9.60;99.90
23089;DHT22;11713;48.506;8.966;2023-03-01T16:15:33;9.50;99.90
23089;DHT22;11713;48.506;8.966;2023-03-01T16:18:06;9.30;99.90
23089;DHT22;11713;48.506;8.966;2023-03-01T16:20:34;9.00;99.90
23089;DHT22;11713;48.506;8.966;2023-03-01T16:23:02;8.80;99.90
23089;DHT22;11713;48.506;8.966;2023-03-01T16:25:29;8.70;99.90
23089;DHT22;11713;48.506;8.966;2023-03-01T16:27:59;8.60;99.90
23089;DHT22;11713;48.506;8.966;2023-03-01T16:30:31;8.50;99.90
23089;DHT22;11713;48.506;8.966;2023-03-01T16:32:57;8.40;99.90
23089;DHT22;11713;48.506;8.966;2023-03-01T16:35:24;8.30;99.90
23089;DHT22;11713;48.506;8.966;2023-03-01T16:37:49;8.10;99.90
23089;DHT22;11713;48.506;8.966;2023-03-01T16:40:21;8.10;99.90
23089;DHT22;11713;48.506;8.966;2023-03-01T16:42:48;7.90;99.90
23089;DHT22;11713;48.506;8.966;2023-03-01T16:45:14;7.80;99.90
23089;DHT22;11713;48.506;8.966;2023-03-01T16:47:40;7.70;99.90
23089;DHT22;11713;48.506;8.966;2023-03-01T16:50:06;7.70;99.90
23089;DHT22;11713;48.506;8.966;2023-03-01T16:52:33;7.70;99.90
23089;DHT22;11713;48.506;8.966;2023-03-01T16:54:59;7.60;99.90
23089;DHT22;11713;48.506;8.966;2023-03-01T16:57:25;7.60;99.90
23089;DHT22;11713;48.506;8.966;2023-03-01T16:59:52;7.50;99.90
23089;DHT22;11713;48.506;8.966;2023-03-01T17:02:21;7.40;99.90
23089;DHT22;11713;48.506;8.966;2023-03-01T17:04:55;7.30;99.90
23089;DHT22;11713;48.506;8.966;2023-03-01T17:07:22;7.20;99.90
23089;DHT22;11713;48.506;8.966;2023-03-01T17:09:48;7.10;99.90
23089;DHT22;11713;48.506;8.966;2023-03-01T17:12:15;7.10;99.90
23089;DHT22;11713;48.506;8.966;2023-03-01T17:14:41;6.90;99.90
23089;DHT22;11713;48.506;8.966;2023-03-01T17:17:08;6.80;99.90
23089;DHT22;11713;48.506;8.966;2023-03-01T17:19:36;6.70;99.90
23089;DHT22;11713;48.506;8.966;2023-03-01T17:22:06;6.50;99.90
23089;DHT22;11713;48.506;8.966;2023-03-01T17:24:34;6.30;99.90
23089;DHT22;11713;48.506;8.966;2023-03-01T17:27:00;6.20;99.90
23089;DHT22;11713;48.506;8.966;2023-03-01T17:29:26;6.20;99.90
23089;DHT22;11713;48.506;8.966;2023-03-01T17:31:51;6.10;99.90
23089;DHT22;11713;48.506;8.966;2023-03-01T17:34:20;6.00;99.90
23089;DHT22;11713;48.506;8.966;2023-03-01T17:36:46;6.00;99.90
23089;DHT22;11713;48.506;8.966;2023-03-01T17:39:14;5.90;99.90
23089;DHT22;11713;48.506;8.966;2023-03-01T17:41:39;5.90;99.90
23089;DHT22;11713;48.506;8.966;2023-03-01T17:44:05;5.80;99.90
23089;DHT22;11713;48.506;8.966;2023-03-01T17:46:31;5.80;99.90
23089;DHT22;11713;48.506;8.966;2023-03-01T17:48:57;5.80;99.90
23089;DHT22;11713;48.506;8.966;2023-03-01T17:51:23;5.80;99.90
23089;DHT22;11713;48.506;8.966;2023-03-01T17:53:49;5.70;99.90